Time;durP1;ratioP1;P1;durP2;ratioP2;P2;SDS_P1;SDS_P2;PMS_P1;PMS_P2;Temp;Humidity;BMP_temperature;BMP_pressure;BME280_temperature;BME280_humidity;BME280_pressure;Samples;Min_cycle;Max_cycle;Signal;HPM_P1;HPM_P2
2022/06/13 00:01:50;;;;;;;4.03;3.67;;;;;;;19.54;nan;99781.38;5005738;28;20253;-70
2022/06/13 00:04:15;;;;;;;3.60;2.83;;;;;;;19.56;nan;99780.25;5005381;28;20577;-70
2022/06/13 00:06:40;;;;;;;3.80;3.27;;;;;;;19.56;nan;99785.59;5005451;28;20308;-78
2022/06/13 00:09:06;;;;;;;3.97;3.67;;;;;;;19.56;nan;99784.75;5005254;28;20200;-70
2022/06/13 00:11:33;;;;;;;5.73;3.57;;;;;;;19.54;nan;99784.88;5005798;28;20191;-76
2022/06/13 00:13:58;;;;;;;4.53;4.07;;;;;;;19.55;nan;99785.72;5005646;28;20495;-71
2022/06/13 00:16:24;;;;;;;6.23;4.10;;;;;;;19.56;nan;99780.25;5005248;28;20480;-70
2022/06/13 00:18:50;;;;;;;7.00;4.40;;;;;;;19.60;nan;99781.63;5005560;28;20246;-72
2022/06/13 00:21:28;;;;;;;6.30;5.20;;;;;;;19.59;nan;99782.63;5004792;28;20531;-72
2022/06/13 00:23:55;;;;;;;6.73;5.27;;;;;;;19.60;nan;99786.94;5005532;28;20526;-74
2022/06/13 00:26:23;;;;;;;8.00;6.43;;;;;;;19.66;nan;99780.22;5004584;28;20666;-74
2022/06/13 00:28:50;;;;;;;8.90;6.37;;;;;;;19.69;nan;99773.75;5004844;28;20500;-80
2022/06/13 00:31:16;;;;;;;6.20;5.60;;;;;;;19.67;nan;99766.72;5005399;28;20453;-73
2022/06/13 00:33:42;;;;;;;6.43;5.83;;;;;;;19.65;nan;99771.34;4987102;28;20472;-71
2022/06/13 00:36:08;;;;;;;9.80;5.83;;;;;;;19.64;nan;99768.84;5005126;28;20454;-71
2022/06/13 00:38:34;;;;;;;9.10;7.63;;;;;;;19.70;nan;99775.41;5004877;28;20285;-74
2022/06/13 00:41:00;;;;;;;8.43;6.07;;;;;;;19.73;nan;99772.44;5004637;28;20568;-79
2022/06/13 00:43:25;;;;;;;5.33;4.27;;;;;;;19.71;nan;99772.59;5004981;28;20807;-72
2022/06/13 00:45:50;;;;;;;8.33;5.70;;;;;;;19.63;nan;99772.47;5004357;28;20577;-73
2022/06/13 00:48:23;;;;;;;8.37;6.70;;;;;;;19.54;nan;99771.56;5004720;28;20216;-74
2022/06/13 00:50:56;;;;;;;6.80;5.17;;;;;;;19.44;nan;99765.47;5005142;28;20196;-72
2022/06/13 00:53:31;;;;;;;8.23;5.27;;;;;;;19.39;nan;99767.78;4987058;28;20450;-75
2022/06/13 00:56:03;;;;;;;10.00;5.73;;;;;;;19.38;nan;99763.41;5005028;28;20490;-71
2022/06/13 00:58:33;;;;;;;6.70;5.47;;;;;;;19.34;nan;99757.56;5004999;28;20474;-71
2022/06/13 01:00:59;;;;;;;5.57;5.00;;;;;;;19.32;nan;99754.19;5005480;28;20503;-72
2022/06/13 01:03:26;;;;;;;8.67;5.47;;;;;;;19.33;nan;99755.84;5005389;28;20767;-72
2022/06/13 01:05:56;;;;;;;5.77;5.17;;;;;;;19.34;nan;99748.72;5006583;28;20266;-71
2022/06/13 01:08:24;;;;;;;10.13;5.17;;;;;;;19.33;nan;99742.53;5006220;28;20460;-71
2022/06/13 01:13:46;;;;;;;6.00;5.20;;;;;;;19.35;nan;99759.22;5005579;28;20804;-71
2022/06/13 01:16:36;;;;;;;7.07;6.07;;;;;;;19.39;nan;99751.78;5005288;28;20462;-71
2022/06/13 01:19:27;;;;;;;9.83;5.60;;;;;;;19.37;nan;99756.41;5005339;28;20624;-73
2022/06/13 01:22:21;;;;;;;6.53;5.93;;;;;;;19.34;nan;99746.06;5000002;28;20467;-71
2022/06/13 01:25:00;;;;;;;6.67;5.73;;;;;;;19.36;nan;99733.41;5004885;28;20478;-75
2022/06/13 01:27:38;;;;;;;8.77;5.80;;;;;;;19.39;nan;99743.78;5005822;28;20665;-77
2022/06/13 01:30:09;;;;;;;7.10;5.90;;;;;;;19.36;nan;99752.06;5005433;28;20820;-71
2022/06/13 01:32:35;;;;;;;6.40;5.07;;;;;;;19.35;nan;99750.41;5005665;28;20640;-77
2022/06/13 01:35:18;;;;;;;8.20;4.90;;;;;;;19.31;nan;99765.84;5006172;28;20464;-73
2022/06/13 01:37:51;;;;;;;6.73;5.20;;;;;;;19.24;nan;99762.09;4985525;28;20559;-72
2022/06/13 01:40:35;;;;;;;6.47;5.87;;;;;;;19.21;nan;99752.59;4991102;28;20477;-71
2022/06/13 01:43:24;;;;;;;6.43;5.83;;;;;;;19.22;nan;99735.59;5005921;28;20823;-75
2022/06/13 01:46:06;;;;;;;6.40;4.97;;;;;;;19.23;nan;99731.97;5005717;28;20546;-76
2022/06/13 01:48:46;;;;;;;6.83;5.33;;;;;;;19.26;nan;99740.66;5005225;28;20564;-71
2022/06/13 01:51:24;;;;;;;9.53;5.67;;;;;;;19.28;nan;99744.84;5005716;28;20453;-71
2022/06/13 01:54:08;;;;;;;6.70;5.00;;;;;;;19.24;nan;99743.47;5005259;28;20456;-77
2022/06/13 01:56:58;;;;;;;7.30;6.10;;;;;;;19.17;nan;99742.38;5005547;28;20476;-73
2022/06/13 01:59:28;;;;;;;6.83;5.00;;;;;;;19.14;nan;99748.00;4980473;28;20904;-71
2022/06/13 02:02:01;;;;;;;9.03;5.67;;;;;;;19.16;nan;99744.19;5005355;28;20489;-78
2022/06/13 02:04:43;;;;;;;6.87;6.07;;;;;;;19.21;nan;99757.06;5003916;28;20665;-74
2022/06/13 02:07:18;;;;;;;7.33;5.27;;;;;;;19.22;nan;99759.56;5004673;28;20539;-75
2022/06/13 02:09:51;;;;;;;6.10;5.10;;;;;;;19.28;nan;99759.97;5005015;28;20441;-73
2022/06/13 02:12:20;;;;;;;7.80;5.60;;;;;;;19.31;nan;99755.19;5004582;28;20625;-71
2022/06/13 02:14:50;;;;;;;7.33;5.00;;;;;;;19.36;nan;99754.72;5005555;28;20452;-78
2022/06/13 02:17:18;;;;;;;6.33;5.17;;;;;;;19.38;nan;99750.09;5005193;28;20478;-71
2022/06/13 02:19:56;;;;;;;6.97;5.93;;;;;;;19.39;nan;99752.63;5005260;28;20523;-71
2022/06/13 02:22:28;;;;;;;6.73;5.53;;;;;;;19.41;nan;99757.78;5006420;28;20947;-71
2022/06/13 02:25:14;;;;;;;8.40;5.83;;;;;;;19.43;nan;99758.47;5009223;28;20473;-71
2022/06/13 02:27:42;;;;;;;9.13;5.97;;;;;;;19.46;nan;99768.81;5008713;28;20831;-71
2022/06/13 02:30:17;;;;;;;5.80;5.20;;;;;;;19.39;nan;99775.75;5008604;28;20449;-73
2022/06/13 02:33:35;;;;;;;6.35;5.70;;;;;;;19.29;nan;99782.97;5008226;28;20521;-71
2022/06/13 02:36:17;;;;;;;10.80;5.97;;;;;;;19.15;nan;99774.50;4971654;28;20238;-77
2022/06/13 02:39:03;;;;;;;6.20;5.60;;;;;;;19.09;nan;99777.75;5008711;28;20453;-72
2022/06/13 02:41:39;;;;;;;6.57;5.87;;;;;;;19.07;nan;99785.03;5008190;28;20539;-72
2022/06/13 02:44:30;;;;;;;9.03;5.80;;;;;;;19.04;nan;99782.69;5008223;28;20482;-72
2022/06/13 02:46:59;;;;;;;6.07;5.47;;;;;;;19.03;nan;99783.66;4997518;28;20504;-72
2022/06/13 02:49:33;;;;;;;7.50;5.90;;;;;;;18.98;nan;99780.59;5007985;28;20441;-72
2022/06/13 02:52:22;;;;;;;5.30;4.80;;;;;;;18.97;nan;99773.59;5008334;28;20553;-73
2022/06/13 02:54:59;;;;;;;6.87;5.67;;;;;;;18.95;nan;99772.91;5008115;28;20760;-72
2022/06/13 02:57:32;;;;;;;6.27;5.10;;;;;;;18.98;nan;99767.28;5008061;28;20494;-72
2022/06/13 03:00:28;;;;;;;6.03;5.00;;;;;;;18.97;nan;99768.28;5008619;28;20447;-72
2022/06/13 03:03:00;;;;;;;7.23;5.13;;;;;;;18.94;nan;99774.72;5002200;28;20446;-73
2022/06/13 03:05:47;;;;;;;7.27;6.10;;;;;;;18.89;nan;99777.00;5005723;28;20525;-72
2022/06/13 03:08:46;;;;;;;6.73;6.00;;;;;;;18.84;nan;99778.41;5008667;28;20453;-72
2022/06/13 03:11:34;;;;;;;6.80;6.00;;;;;;;18.77;nan;99772.84;5007649;28;20454;-72
2022/06/13 03:14:18;;;;;;;6.60;5.63;;;;;;;18.77;nan;99773.69;4988312;28;20426;-77
2022/06/13 03:17:00;;;;;;;8.60;5.50;;;;;;;18.74;nan;99779.31;5002147;28;20859;-72
2022/06/13 03:19:35;;;;;;;7.80;5.93;;;;;;;18.74;nan;99784.63;4989914;28;20438;-72
2022/06/13 03:22:24;;;;;;;7.17;5.70;;;;;;;18.73;nan;99771.44;4988363;28;20453;-72
2022/06/13 03:24:59;;;;;;;7.43;3.73;;;;;;;18.70;nan;99767.22;4998589;28;20538;-72
2022/06/13 03:27:41;;;;;;;5.40;4.90;;;;;;;18.69;nan;99770.06;5007751;28;20900;-72
2022/06/13 03:30:13;;;;;;;4.37;3.30;;;;;;;18.69;nan;99781.53;4988655;28;20932;-76
2022/06/13 03:32:43;;;;;;;7.10;4.82;;;;;;;18.73;nan;99776.75;4996544;28;20591;-72
2022/06/13 03:35:13;;;;;;;5.93;3.90;;;;;;;18.72;nan;99781.22;5006803;28;20248;-76
2022/06/13 03:37:43;;;;;;;5.83;3.20;;;;;;;18.73;nan;99790.06;5007741;28;20449;-72
2022/06/13 03:40:15;;;;;;;6.27;3.57;;;;;;;18.74;nan;99792.63;5006863;28;20845;-74
2022/06/13 03:42:47;;;;;;;4.30;2.97;;;;;;;18.76;nan;99803.09;5007669;28;20622;-72
2022/06/13 03:45:24;;;;;;;4.57;3.00;;;;;;;18.76;nan;99808.41;5006627;28;20780;-74
2022/06/13 03:47:58;;;;;;;6.83;3.90;;;;;;;18.75;nan;99807.59;5007317;28;20470;-73
2022/06/13 03:50:37;;;;;;;3.53;3.23;;;;;;;18.78;nan;99817.09;5007426;28;21070;-71
2022/06/13 03:53:39;;;;;;;2.97;2.67;;;;;;;18.75;nan;99815.56;5008251;28;20460;-72
2022/06/13 03:56:23;;;;;;;4.13;3.47;;;;;;;18.73;nan;99821.97;5003429;28;20529;-72
2022/06/13 03:58:59;;;;;;;5.67;3.40;;;;;;;18.68;nan;99822.41;5007063;28;20498;-72
2022/06/13 04:01:35;;;;;;;3.23;2.93;;;;;;;18.66;nan;99808.44;5006643;28;20453;-72
2022/06/13 04:04:01;;;;;;;3.20;2.97;;;;;;;18.61;nan;99816.00;5007373;28;20989;-72
2022/06/13 04:06:37;;;;;;;4.20;2.90;;;;;;;18.60;nan;99819.63;5006456;28;20477;-72
2022/06/13 04:09:07;;;;;;;3.50;2.30;;;;;;;18.57;nan;99811.94;5006934;28;20620;-72
2022/06/13 04:12:11;;;;;;;5.97;2.73;;;;;;;18.53;nan;99823.88;5006496;28;20452;-74
2022/06/13 04:15:14;;;;;;;5.33;3.60;;;;;;;18.47;nan;99824.41;5007251;28;20437;-76
2022/06/13 04:17:57;;;;;;;2.50;2.30;;;;;;;18.45;nan;99832.56;5007357;28;20525;-73
2022/06/13 04:20:30;;;;;;;4.00;2.10;;;;;;;18.41;nan;99828.50;5006369;28;20444;-72
2022/06/13 04:23:14;;;;;;;3.67;2.33;;;;;;;18.32;nan;99838.16;5006516;28;20948;-72
2022/06/13 04:25:49;;;;;;;2.50;2.30;;;;;;;18.22;nan;99828.50;5006906;28;20490;-77
2022/06/13 04:28:24;;;;;;;4.30;3.00;;;;;;;18.16;nan;99834.41;5006249;28;20528;-75
2022/06/13 04:30:52;;;;;;;2.90;2.23;;;;;;;18.12;nan;99833.84;5006389;28;20446;-71
2022/06/13 04:33:25;;;;;;;7.83;3.27;;;;;;;18.07;nan;99828.13;5006778;28;20458;-76
2022/06/13 04:35:52;;;;;;;2.63;2.43;;;;;;;18.06;nan;99826.44;5006860;28;20462;-76
2022/06/13 04:38:21;;;;;;;3.65;2.30;;;;;;;18.07;nan;99828.13;5006431;28;20607;-72
2022/06/13 04:40:56;;;;;;;5.80;3.27;;;;;;;18.05;nan;99824.75;5005899;28;20253;-73
2022/06/13 04:43:26;;;;;;;4.13;2.50;;;;;;;18.05;nan;99836.22;5006027;28;20433;-71
2022/06/13 04:46:09;;;;;;;5.23;2.63;;;;;;;18.08;nan;99832.44;5005721;28;20499;-71
2022/06/13 04:48:38;;;;;;;4.53;2.73;;;;;;;18.13;nan;99839.03;5006848;28;20525;-71
2022/06/13 04:51:13;;;;;;;5.77;3.10;;;;;;;18.20;nan;99843.75;5006963;28;20444;-71
2022/06/13 04:53:50;;;;;;;3.03;2.83;;;;;;;18.23;nan;99844.34;5006438;28;20466;-71
2022/06/13 04:56:18;;;;;;;4.20;2.07;;;;;;;18.27;nan;99850.22;5006017;28;20480;-76
2022/06/13 04:58:44;;;;;;;4.00;3.40;;;;;;;18.32;nan;99848.81;5006803;28;20439;-71
2022/06/13 05:01:26;;;;;;;8.93;2.40;;;;;;;18.37;nan;99850.22;5005660;28;20941;-71
2022/06/13 05:03:54;;;;;;;5.40;2.73;;;;;;;18.43;nan;99845.16;5006559;28;20225;-71
2022/06/13 05:06:46;;;;;;;5.20;2.77;;;;;;;18.53;nan;99855.78;5005555;28;20486;-72
2022/06/13 05:09:11;;;;;;;3.60;2.30;;;;;;;18.52;nan;99864.72;5006645;28;20471;-71
2022/06/13 05:12:06;;;;;;;2.70;2.17;;;;;;;18.54;nan;99868.09;5005532;28;20496;-71
2022/06/13 05:14:54;;;;;;;3.60;3.10;;;;;;;18.60;nan;99867.53;5005664;28;20197;-71
2022/06/13 05:17:25;;;;;;;4.20;3.40;;;;;;;18.64;nan;99873.41;5003632;28;20466;-71
2022/06/13 05:19:57;;;;;;;5.77;3.17;;;;;;;18.66;nan;99877.63;5005587;28;20927;-71
2022/06/13 05:22:28;;;;;;;4.33;2.33;;;;;;;18.70;nan;99868.34;5005399;28;20915;-74
2022/06/13 05:25:05;;;;;;;2.73;2.53;;;;;;;18.74;nan;99874.22;5005453;28;20488;-76
2022/06/13 05:27:31;;;;;;;4.70;3.07;;;;;;;18.73;nan;99881.34;5005544;28;20450;-72
2022/06/13 05:29:56;;;;;;;4.20;2.90;;;;;;;18.71;nan;99880.69;5006238;28;20461;-71
2022/06/13 05:32:22;;;;;;;4.50;2.60;;;;;;;18.74;nan;99884.84;5004811;28;20995;-71
2022/06/13 05:34:49;;;;;;;3.83;2.50;;;;;;;18.72;nan;99890.34;5005739;28;20563;-76
2022/06/13 05:37:16;;;;;;;2.90;2.03;;;;;;;18.71;nan;99888.66;5005416;28;20467;-71
2022/06/13 05:39:42;;;;;;;3.30;2.73;;;;;;;18.75;nan;99899.88;5005019;28;20554;-71
2022/06/13 05:42:12;;;;;;;2.47;2.03;;;;;;;18.75;nan;99894.56;5005854;28;20463;-71
2022/06/13 05:44:38;;;;;;;2.90;2.37;;;;;;;18.76;nan;99909.53;5005927;28;20508;-71
2022/06/13 05:47:03;;;;;;;3.20;2.40;;;;;;;18.79;nan;99914.56;5004971;28;20779;-72
2022/06/13 05:49:29;;;;;;;2.93;2.57;;;;;;;18.87;nan;99911.19;5005765;28;20452;-71
2022/06/13 05:51:55;;;;;;;5.20;3.40;;;;;;;18.94;nan;99909.66;5005109;28;20689;-72
2022/06/13 05:54:21;;;;;;;3.00;2.40;;;;;;;18.95;nan;99911.31;5005477;28;20209;-78
2022/06/13 05:56:46;;;;;;;9.13;3.67;;;;;;;19.13;nan;99917.56;5004934;28;20552;-74
2022/06/13 05:59:12;;;;;;;4.93;3.00;;;;;;;19.34;nan;99919.19;5005036;28;20484;-74
2022/06/13 06:01:38;;;;;;;3.80;2.80;;;;;;;19.53;nan;99926.28;5005609;28;20697;-71
2022/06/13 06:04:04;;;;;;;2.83;2.63;;;;;;;19.63;nan;99925.25;5004860;28;20229;-71
2022/06/13 06:06:31;;;;;;;4.43;2.70;;;;;;;19.66;nan;99918.81;5005397;28;20470;-71
2022/06/13 06:08:57;;;;;;;2.77;2.57;;;;;;;19.72;nan;99928.03;5005551;28;20478;-71
2022/06/13 06:11:24;;;;;;;3.63;2.37;;;;;;;19.80;nan;99928.97;5004812;28;20463;-73
2022/06/13 06:13:49;;;;;;;3.30;2.30;;;;;;;19.93;nan;99925.06;5005581;28;20820;-71
2022/06/13 06:16:17;;;;;;;8.20;2.47;;;;;;;20.31;nan;99929.31;5004523;28;20479;-71
2022/06/13 06:18:42;;;;;;;4.63;2.23;;;;;;;20.61;nan;99920.09;5005089;28;20200;-76
2022/06/13 06:21:08;;;;;;;3.67;3.30;;;;;;;20.84;nan;99916.94;5005404;28;20498;-73
2022/06/13 06:23:35;;;;;;;8.55;3.20;;;;;;;21.14;nan;99928.97;5004617;28;20462;-75
2022/06/13 06:26:01;;;;;;;3.17;2.43;;;;;;;21.56;nan;99926.38;4992014;28;20278;-73
2022/06/13 06:28:27;;;;;;;3.27;2.73;;;;;;;22.00;nan;99928.03;5004539;28;20874;-73
2022/06/13 06:30:54;;;;;;;4.70;2.43;;;;;;;22.60;nan;99924.28;5005467;28;20190;-78
2022/06/13 06:33:23;;;;;;;4.40;3.10;;;;;;;23.09;nan;99930.47;5003781;28;20606;-73
2022/06/13 06:35:50;;;;;;;4.30;2.67;;;;;;;23.40;nan;99916.28;5004549;28;20857;-73
2022/06/13 06:38:16;;;;;;;4.60;3.30;;;;;;;23.52;nan;99922.97;5004632;28;20451;-78
2022/06/13 06:40:42;;;;;;;4.30;3.90;;;;;;;23.83;nan;99928.38;5005299;28;20463;-73
2022/06/13 06:43:07;;;;;;;3.73;3.40;;;;;;;24.43;nan;99929.50;5004525;28;20220;-73
2022/06/13 06:45:34;;;;;;;3.20;2.83;;;;;;;25.06;nan;99924.78;5004881;28;20228;-74
2022/06/13 06:47:59;;;;;;;4.20;2.77;;;;;;;25.57;nan;99926.72;5004603;28;20219;-73
2022/06/13 06:50:30;;;;;;;3.33;2.33;;;;;;;25.88;nan;99923.03;5005083;28;20453;-73
2022/06/13 06:52:55;;;;;;;6.30;2.17;;;;;;;26.01;nan;99917.78;5005393;28;20211;-75
2022/06/13 07:00:54;;;;;;;6.37;2.80;;;;;;;25.94;nan;99933.03;5005625;28;20475;-74
2022/06/13 07:03:19;;;;;;;3.97;2.50;;;;;;;26.14;nan;99931.41;5004433;28;20470;-73
2022/06/13 07:05:46;;;;;;;3.30;2.20;;;;;;;26.24;nan;99931.91;5006951;28;20507;-78
2022/06/13 07:08:12;;;;;;;4.80;2.33;;;;;;;26.34;nan;99930.75;5005091;28;20208;-73
2022/06/13 07:10:38;;;;;;;3.50;2.23;;;;;;;26.16;nan;99940.09;5006866;28;20467;-73
2022/06/13 07:13:04;;;;;;;2.77;2.17;;;;;;;26.04;nan;99930.88;5008650;28;20828;-73
2022/06/13 07:15:29;;;;;;;4.53;2.40;;;;;;;26.16;nan;99950.88;5007527;28;20574;-73
2022/06/13 07:17:55;;;;;;;4.47;2.80;;;;;;;26.33;nan;99947.94;5008503;28;20191;-78
2022/06/13 07:20:20;;;;;;;3.43;2.23;;;;;;;26.35;nan;99945.88;5008121;28;20672;-73
2022/06/13 07:22:51;;;;;;;4.40;2.23;;;;;;;26.51;nan;99955.56;5007394;28;20331;-79
2022/06/13 07:25:20;;;;;;;4.47;2.00;;;;;;;26.22;nan;99952.81;5007861;28;20236;-79
2022/06/13 07:27:45;;;;;;;4.17;2.20;;;;;;;26.09;nan;99958.06;5008188;28;20820;-75
2022/06/13 07:30:13;;;;;;;3.27;2.13;;;;;;;26.21;nan;99956.50;5007781;28;20518;-73
2022/06/13 07:32:40;;;;;;;4.83;2.60;;;;;;;26.19;nan;99963.13;5008431;28;20237;-78
2022/06/13 07:35:07;;;;;;;3.40;2.50;;;;;;;26.40;nan;99962.31;5008187;28;20436;-73
2022/06/13 07:40:16;;;;;;;2.60;2.10;;;;;;;27.13;nan;99963.78;5008183;28;20574;-74
2022/06/13 07:42:46;;;;;;;3.93;1.93;;;;;;;27.28;nan;99963.72;5007418;28;20551;-74
2022/06/13 07:45:17;;;;;;;7.43;2.83;;;;;;;27.35;nan;99969.16;5007031;28;20465;-73
2022/06/13 07:47:44;;;;;;;6.70;3.20;;;;;;;27.31;nan;99957.09;5007320;28;20780;-79
2022/06/13 07:50:13;;;;;;;4.53;4.13;;;;;;;27.17;nan;99966.13;5008051;28;20811;-73
2022/06/13 07:52:38;;;;;;;4.03;2.07;;;;;;;27.14;nan;99968.16;5007489;28;20444;-73
2022/06/13 07:55:04;;;;;;;4.20;2.53;;;;;;;26.99;nan;99962.03;5006947;28;20630;-78
2022/06/13 07:57:30;;;;;;;3.90;2.80;;;;;;;26.97;nan;99969.47;5007537;28;20204;-73
2022/06/13 07:59:56;;;;;;;5.33;2.80;;;;;;;26.58;nan;99972.69;5007113;28;20458;-73
2022/06/13 08:02:21;;;;;;;4.67;2.63;;;;;;;26.31;nan;99971.53;5007640;28;20444;-74
2022/06/13 08:04:47;;;;;;;3.17;2.30;;;;;;;26.17;nan;99966.00;5006749;28;20224;-73
2022/06/13 08:07:15;;;;;;;3.57;2.60;;;;;;;26.18;nan;99973.06;5007921;28;20295;-74
2022/06/13 08:09:40;;;;;;;3.20;2.50;;;;;;;26.11;nan;99976.69;5007725;28;20290;-76
2022/06/13 08:12:08;;;;;;;5.20;3.20;;;;;;;25.76;nan;99973.75;5006884;28;20937;-73
2022/06/13 08:14:34;;;;;;;3.60;3.13;;;;;;;25.76;nan;99974.59;5007280;28;20238;-73
2022/06/13 08:16:59;;;;;;;5.60;3.07;;;;;;;25.41;nan;99978.03;5006853;28;20981;-73
2022/06/13 08:19:24;;;;;;;6.67;2.87;;;;;;;25.04;nan;99979.75;5006569;28;20200;-77
2022/06/13 08:21:51;;;;;;;8.00;2.90;;;;;;;24.98;nan;99983.13;5006923;28;20210;-73
2022/06/13 08:24:17;;;;;;;4.97;2.80;;;;;;;25.11;nan;99972.59;5006333;28;20388;-73
2022/06/13 08:26:42;;;;;;;4.93;3.00;;;;;;;25.16;nan;99975.59;5006860;28;20475;-73
2022/06/13 08:29:08;;;;;;;3.70;2.67;;;;;;;25.00;nan;99965.81;5006446;28;20229;-74
2022/06/13 08:31:35;;;;;;;4.20;2.30;;;;;;;24.77;nan;99975.78;5007233;28;20228;-73
2022/06/13 08:34:00;;;;;;;6.03;2.77;;;;;;;24.61;nan;99977.56;5006641;28;20300;-73
2022/06/13 08:36:26;;;;;;;4.67;2.77;;;;;;;24.42;nan;99978.84;5006760;28;20899;-71
2022/06/13 08:38:51;;;;;;;4.40;2.57;;;;;;;24.53;nan;99977.63;5006852;28;20207;-71
2022/06/13 08:41:35;;;;;;;4.70;2.90;;;;;;;24.80;nan;99970.03;5005927;28;20285;-72
2022/06/13 08:44:27;;;;;;;4.97;2.47;;;;;;;24.88;nan;99973.47;5006682;28;20796;-72
2022/06/13 08:47:16;;;;;;;2.83;2.63;;;;;;;24.69;nan;99984.72;5006691;28;20516;-71
2022/06/13 08:50:01;;;;;;;5.60;2.77;;;;;;;24.24;nan;99979.13;5006544;28;20462;-71
2022/06/13 08:52:35;;;;;;;4.47;2.00;;;;;;;23.96;nan;99976.09;5006388;28;20965;-72
2022/06/13 08:55:12;;;;;;;3.93;2.83;;;;;;;24.09;nan;99983.59;5006486;28;20416;-71
2022/06/13 08:57:44;;;;;;;4.73;2.70;;;;;;;24.45;nan;99985.75;4987309;28;20856;-71
2022/06/13 09:00:20;;;;;;;4.70;2.77;;;;;;;24.79;nan;99979.97;4986881;28;20903;-72
2022/06/13 09:02:54;;;;;;;5.75;3.10;;;;;;;25.15;nan;99984.69;4985959;28;20575;-71
2022/06/13 09:05:27;;;;;;;3.77;2.67;;;;;;;25.26;nan;99978.88;4987663;28;20231;-72
2022/06/13 09:08:04;;;;;;;8.00;2.70;;;;;;;25.09;nan;99978.16;5005955;28;20418;-71
2022/06/13 09:10:41;;;;;;;4.47;2.53;;;;;;;25.19;nan;99969.03;5005405;28;20449;-71
2022/06/13 09:13:25;;;;;;;8.70;2.80;;;;;;;25.26;nan;99972.66;5006442;28;20477;-72
2022/06/13 09:15:56;;;;;;;5.00;2.97;;;;;;;25.42;nan;99977.03;5005325;28;20466;-71
2022/06/13 09:18:41;;;;;;;6.57;3.07;;;;;;;25.47;nan;99980.00;5005611;28;20451;-71
2022/06/13 09:21:37;;;;;;;3.27;2.10;;;;;;;25.66;nan;99974.06;5005416;28;20482;-72
2022/06/13 09:24:12;;;;;;;2.63;2.30;;;;;;;25.99;nan;99974.50;4998761;28;21095;-71
2022/06/13 09:26:48;;;;;;;3.70;2.13;;;;;;;26.31;nan;99985.00;5005027;28;20478;-71
2022/06/13 09:29:31;;;;;;;3.90;2.30;;;;;;;26.37;nan;99982.38;5003576;28;20567;-72
2022/06/13 09:32:16;;;;;;;4.90;1.90;;;;;;;26.44;nan;99994.06;5005133;28;20471;-71
2022/06/13 09:34:47;;;;;;;3.03;1.90;;;;;;;26.32;nan;99994.75;5005883;28;20872;-72
2022/06/13 09:37:40;;;;;;;3.57;2.60;;;;;;;26.47;nan;99990.97;5005591;28;20463;-72
2022/06/13 09:40:07;;;;;;;4.43;1.73;;;;;;;26.50;nan;99997.84;5005689;28;20866;-72
2022/06/13 09:42:46;;;;;;;4.80;2.53;;;;;;;26.65;nan;99995.97;5005037;28;20475;-72
2022/06/13 09:45:46;;;;;;;3.50;2.00;;;;;;;26.76;nan;100001.84;5005615;28;20478;-72
2022/06/13 09:48:37;;;;;;;5.07;2.13;;;;;;;26.77;nan;99998.97;5003007;28;20525;-71
2022/06/13 09:51:35;;;;;;;2.87;2.00;;;;;;;26.74;nan;100002.06;5005103;28;20491;-72
2022/06/13 09:54:53;;;;;;;7.43;3.00;;;;;;;26.75;nan;99995.63;5005851;28;20452;-72
2022/06/13 09:57:44;;;;;;;3.47;1.97;;;;;;;26.47;nan;99992.84;4963482;28;20465;-72
2022/06/13 10:00:16;;;;;;;4.60;2.20;;;;;;;26.43;nan;99992.38;4984154;28;21030;-71
2022/06/13 10:03:01;;;;;;;3.30;1.60;;;;;;;26.67;nan;99998.44;4985575;28;20443;-72
2022/06/13 10:05:30;;;;;;;1.93;1.80;;;;;;;26.69;nan;99993.72;4987561;28;21110;-72
2022/06/13 10:08:12;;;;;;;2.97;1.90;;;;;;;26.76;nan;99989.22;5005384;28;20460;-71
2022/06/13 10:11:01;;;;;;;4.83;2.37;;;;;;;26.75;nan;99994.78;4996570;28;20494;-72
2022/06/13 10:14:03;;;;;;;3.13;2.17;;;;;;;26.87;nan;99993.25;5005052;28;21031;-72
2022/06/13 10:16:35;;;;;;;4.80;2.47;;;;;;;27.04;nan;99991.09;5005530;28;20680;-72
2022/06/13 10:19:25;;;;;;;6.33;2.40;;;;;;;27.20;nan;99987.31;5005570;28;20540;-72
2022/06/13 10:21:58;;;;;;;4.53;2.07;;;;;;;27.04;nan;99986.53;5004901;28;20942;-71
2022/06/13 10:24:39;;;;;;;3.63;1.80;;;;;;;26.39;nan;99982.19;5004708;28;21060;-72
2022/06/13 10:27:21;;;;;;;2.20;2.00;;;;;;;26.22;nan;99982.44;5005018;28;20459;-72
2022/06/13 10:29:57;;;;;;;4.07;2.20;;;;;;;26.23;nan;99983.25;5005168;28;20696;-71
2022/06/13 10:32:45;;;;;;;4.60;2.17;;;;;;;26.43;nan;99981.59;5004623;28;20439;-71
2022/06/13 10:35:26;;;;;;;5.50;2.10;;;;;;;26.75;nan;99973.25;5004727;28;20612;-72
2022/06/13 10:38:14;;;;;;;2.67;2.30;;;;;;;26.97;nan;99972.16;5005163;28;20446;-72
2022/06/13 10:40:40;;;;;;;2.13;1.90;;;;;;;27.20;nan;99966.56;5004440;28;20594;-72
2022/06/13 10:43:06;;;;;;;5.00;2.30;;;;;;;27.29;nan;99972.63;5004902;28;20501;-71
2022/06/13 10:45:34;;;;;;;2.80;2.60;;;;;;;27.45;nan;99966.94;5008932;28;20482;-72
2022/06/13 10:48:28;;;;;;;3.00;1.70;;;;;;;27.64;nan;99962.66;5008267;28;20208;-73
2022/06/13 10:50:55;;;;;;;3.60;2.17;;;;;;;27.77;nan;99965.44;5009193;28;20447;-73
2022/06/13 10:53:26;;;;;;;5.40;2.10;;;;;;;27.73;nan;99958.78;5008563;28;20949;-72
2022/06/13 10:55:54;;;;;;;3.63;1.90;;;;;;;27.72;nan;99954.41;5008547;28;20666;-72
2022/06/13 10:58:28;;;;;;;4.17;1.80;;;;;;;27.76;nan;99952.13;5008953;28;20558;-72
2022/06/13 11:01:05;;;;;;;2.50;2.00;;;;;;;27.89;nan;99949.50;5008892;28;20461;-72
2022/06/13 11:03:30;;;;;;;1.90;1.47;;;;;;;27.94;nan;99946.22;5007938;28;20439;-72
2022/06/13 11:06:01;;;;;;;2.93;2.10;;;;;;;27.83;nan;99955.72;5008586;28;20506;-72
2022/06/13 11:08:27;;;;;;;3.80;1.93;;;;;;;27.61;nan;99951.47;5008333;28;20213;-72
2022/06/13 11:11:05;;;;;;;4.20;2.30;;;;;;;27.29;nan;99951.06;5008191;28;20458;-73
2022/06/13 11:13:36;;;;;;;1.90;1.80;;;;;;;27.21;nan;99962.84;5007856;28;20545;-72
2022/06/13 11:25:01;;;;;;;2.40;1.73;;;;;;;26.23;nan;99956.34;5007726;28;20490;-70
2022/06/13 11:27:40;;;;;;;5.23;1.80;;;;;;;25.75;nan;99959.47;5007934;28;20459;-71
2022/06/13 11:30:29;;;;;;;2.40;1.70;;;;;;;25.55;nan;99953.84;5008451;28;20592;-71
2022/06/13 11:33:01;;;;;;;1.80;1.63;;;;;;;25.68;nan;99955.88;4990669;28;20451;-71
2022/06/13 11:35:40;;;;;;;4.27;1.80;;;;;;;25.77;nan;99960.13;5007875;28;20466;-71
2022/06/13 11:38:35;;;;;;;2.10;1.90;;;;;;;25.94;nan;99950.00;5007533;28;20532;-71
2022/06/13 11:41:15;;;;;;;2.33;1.73;;;;;;;26.11;nan;99947.06;5006831;28;20541;-72
2022/06/13 11:43:51;;;;;;;3.80;1.83;;;;;;;26.18;nan;99945.31;4989233;28;20550;-71
2022/06/13 11:46:33;;;;;;;3.40;2.27;;;;;;;26.17;nan;99947.16;5007200;28;20458;-71
2022/06/13 11:49:18;;;;;;;2.67;1.97;;;;;;;26.16;nan;99945.47;5008014;28;20784;-72
2022/06/13 11:52:00;;;;;;;2.43;1.90;;;;;;;26.25;nan;99944.34;5006955;28;20453;-71
2022/06/13 11:54:28;;;;;;;3.83;1.73;;;;;;;26.30;nan;99945.63;5007382;28;20481;-72
2022/06/13 11:57:12;;;;;;;7.57;2.57;;;;;;;26.19;nan;99934.34;5006997;28;20479;-72
2022/06/13 11:59:52;;;;;;;2.07;1.97;;;;;;;26.15;nan;99934.91;4989179;28;20444;-71
2022/06/13 12:02:19;;;;;;;4.37;2.10;;;;;;;26.14;nan;99934.09;5007402;28;20466;-71
2022/06/13 12:04:48;;;;;;;2.93;2.13;;;;;;;26.20;nan;99933.31;5006643;28;20969;-72
2022/06/13 12:07:25;;;;;;;2.37;1.70;;;;;;;26.22;nan;99933.09;5006928;28;20526;-71
2022/06/13 12:09:53;;;;;;;2.90;1.80;;;;;;;26.29;nan;99927.81;5006786;28;20454;-72
2022/06/13 12:12:18;;;;;;;2.83;1.80;;;;;;;26.42;nan;99925.25;5007191;28;20448;-71
2022/06/13 12:14:44;;;;;;;5.33;1.80;;;;;;;26.50;nan;99917.03;5007278;28;20460;-71
2022/06/13 12:17:17;;;;;;;2.40;1.87;;;;;;;26.48;nan;99916.38;5006499;28;20270;-71
2022/06/13 12:20:08;;;;;;;2.93;1.53;;;;;;;26.52;nan;99920.41;5006629;28;20395;-72
2022/06/13 12:22:47;;;;;;;2.77;1.70;;;;;;;26.52;nan;99920.41;5006250;28;20447;-71
2022/06/13 12:25:26;;;;;;;3.13;1.97;;;;;;;26.42;nan;99917.16;5006789;28;20569;-71
2022/06/13 12:27:56;;;;;;;3.60;2.10;;;;;;;26.22;nan;99917.81;5007074;28;20459;-73
2022/06/13 12:30:42;;;;;;;2.73;1.80;;;;;;;25.81;nan;99915.66;5007247;28;20457;-71
2022/06/13 12:33:33;;;;;;;1.90;1.70;;;;;;;25.65;nan;99913.19;5006594;28;20439;-72
2022/06/13 12:36:05;;;;;;;3.43;1.53;;;;;;;25.68;nan;99911.97;5006607;28;20539;-72
2022/06/13 12:38:55;;;;;;;2.80;1.80;;;;;;;25.78;nan;99918.72;5006163;28;20458;-71
2022/06/13 12:41:34;;;;;;;2.67;1.83;;;;;;;25.72;nan;99913.28;5006098;28;20566;-72
2022/06/13 12:44:07;;;;;;;3.57;2.03;;;;;;;25.77;nan;99917.06;5006814;28;20464;-72
2022/06/13 12:46:58;;;;;;;4.80;1.87;;;;;;;25.85;nan;99916.16;5006501;28;20541;-73